Time;durP1;ratioP1;P1;durP2;ratioP2;P2;SDS_P1;SDS_P2;PMS_P1;PMS_P2;Temp;Humidity;BMP_temperature;BMP_pressure;BME280_temperature;BME280_humidity;BME280_pressure;Samples;Min_cycle;Max_cycle;Signal;HPM_P1;HPM_P2
2022/05/22 00:00:18;;;;;;;0.85;0.85;;;24.90;47.30;;;;;;4874905;29;20045;-60
2022/05/22 00:02:46;;;;;;;1.02;0.75;;;24.90;47.30;;;;;;4874800;29;20487;-60
2022/05/22 00:05:16;;;;;;;0.47;0.47;;;24.90;47.30;;;;;;4875038;29;20072;-60
2022/05/22 00:07:44;;;;;;;0.60;0.60;;;24.90;47.30;;;;;;4873667;29;20112;-60
2022/05/22 00:10:12;;;;;;;0.60;0.60;;;24.90;47.30;;;;;;4874856;29;20125;-60
2022/05/22 00:12:41;;;;;;;0.68;0.68;;;24.90;47.40;;;;;;4873476;29;20485;-60
2022/05/22 00:15:11;;;;;;;0.70;0.70;;;24.90;47.40;;;;;;4875899;29;20494;-60
2022/05/22 00:17:38;;;;;;;0.57;0.57;;;24.90;47.40;;;;;;4872971;29;20045;-60
2022/05/22 00:20:06;;;;;;;0.80;0.80;;;24.90;47.30;;;;;;4878481;29;20048;-60
2022/05/22 00:22:33;;;;;;;0.55;0.55;;;24.90;47.30;;;;;;4877982;29;20125;-60
2022/05/22 00:25:00;;;;;;;0.43;0.43;;;24.90;47.30;;;;;;4878205;29;20144;-60
2022/05/22 00:27:27;;;;;;;1.25;0.70;;;24.90;47.30;;;;;;4878476;29;20084;-59
2022/05/22 00:29:55;;;;;;;0.55;0.55;;;24.90;47.30;;;;;;4878071;29;20068;-60
2022/05/22 00:32:22;;;;;;;0.70;0.70;;;24.90;47.30;;;;;;4878527;29;20045;-60
2022/05/22 00:34:49;;;;;;;0.57;0.57;;;24.90;47.30;;;;;;4878021;29;20056;-60
2022/05/22 00:37:16;;;;;;;0.60;0.60;;;24.90;47.30;;;;;;4878363;29;20088;-60
2022/05/22 00:39:43;;;;;;;0.60;0.60;;;24.90;47.30;;;;;;4876625;29;20049;-60
2022/05/22 00:42:19;;;;;;;0.73;0.73;;;24.90;47.30;;;;;;4878264;29;20132;-60
2022/05/22 00:44:47;;;;;;;0.75;0.68;;;24.90;47.30;;;;;;4877858;29;20112;-60
2022/05/22 00:47:14;;;;;;;0.60;0.60;;;24.90;47.30;;;;;;4877615;29;20052;-60
2022/05/22 00:49:43;;;;;;;0.60;0.60;;;24.90;47.30;;;;;;4873198;29;20078;-60
2022/05/22 00:52:33;;;;;;;0.40;0.40;;;24.90;47.30;;;;;;4878034;29;20083;-60
2022/05/22 00:55:10;;;;;;;;;;;24.90;47.30;;;;;;4878276;29;20085;-60
2022/05/22 00:57:47;;;;;;;0.52;0.52;;;24.90;47.40;;;;;;4878119;29;19931;-60
2022/05/22 01:00:19;;;;;;;0.57;0.57;;;24.90;47.40;;;;;;4877318;29;20045;-60
2022/05/22 01:05:36;;;;;;;1.25;0.60;;;24.80;47.30;;;;;;4877166;29;20049;-60
2022/05/22 01:08:03;;;;;;;0.50;0.50;;;24.90;47.40;;;;;;4877770;29;20093;-60
2022/05/22 01:10:39;;;;;;;0.50;0.50;;;24.90;47.40;;;;;;4877073;29;20065;-60
2022/05/22 01:13:07;;;;;;;0.70;0.70;;;24.90;47.40;;;;;;4877211;29;20044;-60
2022/05/22 01:15:35;;;;;;;0.60;0.60;;;24.80;47.30;;;;;;4877628;29;20080;-60
2022/05/22 01:18:02;;;;;;;0.55;0.55;;;24.80;47.30;;;;;;4877280;29;20482;-60
2022/05/22 01:20:29;;;;;;;0.60;0.60;;;24.80;47.30;;;;;;4873179;29;20057;-60
2022/05/22 01:22:56;;;;;;;0.52;0.50;;;24.90;47.40;;;;;;4876146;29;20105;-60
2022/05/22 01:25:24;;;;;;;0.88;0.68;;;24.80;47.30;;;;;;4876926;29;20057;-60
2022/05/22 01:27:52;;;;;;;0.57;0.57;;;24.80;47.30;;;;;;4876505;29;20113;-60
2022/05/22 01:30:24;;;;;;;0.52;0.52;;;24.80;47.30;;;;;;4876702;29;20060;-60
2022/05/22 01:32:51;;;;;;;0.40;0.40;;;24.80;47.40;;;;;;4877083;29;20052;-59
2022/05/22 01:35:23;;;;;;;0.60;0.60;;;24.80;47.50;;;;;;4876339;29;20076;-60
2022/05/22 01:37:51;;;;;;;0.75;0.75;;;24.80;47.90;;;;;;4876746;29;20088;-60
2022/05/22 01:40:19;;;;;;;0.50;0.50;;;24.80;47.40;;;;;;4876402;29;20049;-60
2022/05/22 01:42:47;;;;;;;0.60;0.60;;;24.80;47.40;;;;;;4876449;29;20575;-60
2022/05/22 01:45:18;;;;;;;0.52;0.52;;;24.80;47.40;;;;;;4876789;29;20053;-60
2022/05/22 01:47:46;;;;;;;0.95;0.88;;;24.80;47.40;;;;;;4875809;29;20392;-60
2022/05/22 01:50:14;;;;;;;0.50;0.50;;;24.80;47.40;;;;;;4877036;29;20323;-60
2022/05/22 01:52:41;;;;;;;0.80;0.80;;;24.80;47.40;;;;;;4872541;29;20152;-60
2022/05/22 01:55:10;;;;;;;0.68;0.68;;;24.80;47.50;;;;;;4876631;29;20101;-60
2022/05/22 01:57:39;;;;;;;0.50;0.50;;;24.80;47.40;;;;;;4877153;29;20057;-60
2022/05/22 02:00:09;;;;;;;0.90;0.68;;;24.80;47.40;;;;;;4876042;29;20045;-60
2022/05/22 02:02:36;;;;;;;0.82;0.73;;;24.80;47.40;;;;;;4876639;29;20053;-59
2022/05/22 02:05:04;;;;;;;0.73;0.73;;;24.80;47.30;;;;;;4876372;29;20052;-60
2022/05/22 02:10:18;;;;;;;1.85;0.60;;;24.80;47.30;;;;;;4876389;29;20081;-60
2022/05/22 02:12:45;;;;;;;0.90;0.90;;;24.80;47.30;;;;;;4876561;29;20057;-60
2022/05/22 02:15:12;;;;;;;0.68;0.68;;;24.80;47.30;;;;;;4875846;29;20049;-60
2022/05/22 02:17:39;;;;;;;0.40;0.40;;;24.80;47.30;;;;;;4876555;29;20056;-60
2022/05/22 02:20:07;;;;;;;0.65;0.63;;;24.80;47.30;;;;;;4876572;29;20041;-60
2022/05/22 02:22:47;;;;;;;0.40;0.40;;;24.80;47.30;;;;;;4874605;29;20463;-60
2022/05/22 02:25:23;;;;;;;0.82;0.55;;;24.80;47.30;;;;;;4871918;29;20136;-60
2022/05/22 02:27:51;;;;;;;0.60;0.60;;;24.80;47.30;;;;;;4876430;29;20115;-60
2022/05/22 02:30:22;;;;;;;0.47;0.47;;;24.80;47.30;;;;;;4876152;29;20057;-60
2022/05/22 02:32:49;;;;;;;0.52;0.52;;;24.80;47.30;;;;;;4876163;29;20049;-60
2022/05/22 02:35:17;;;;;;;0.35;0.35;;;24.70;47.40;;;;;;4874771;29;20124;-60
2022/05/22 02:37:47;;;;;;;0.60;0.60;;;24.70;47.40;;;;;;4875826;29;20053;-60
2022/05/22 02:40:16;;;;;;;0.43;0.43;;;24.80;47.40;;;;;;4874486;29;20366;-60
2022/05/22 02:42:46;;;;;;;0.68;0.50;;;24.80;47.40;;;;;;4875021;29;20652;-60
2022/05/22 02:45:15;;;;;;;0.50;0.50;;;24.80;47.40;;;;;;4875241;29;20070;-60
2022/05/22 02:47:43;;;;;;;0.60;0.60;;;24.70;47.40;;;;;;4875819;29;20430;-60
2022/05/22 02:50:12;;;;;;;0.50;0.50;;;24.70;47.40;;;;;;4875367;29;20132;-60
2022/05/22 02:52:39;;;;;;;0.80;0.80;;;24.70;47.40;;;;;;4875782;29;20331;-60
2022/05/22 02:55:08;;;;;;;0.50;0.50;;;24.70;47.40;;;;;;4871045;29;20510;-60
2022/05/22 02:57:37;;;;;;;0.65;0.65;;;24.70;47.40;;;;;;4875713;29;20084;-60
2022/05/22 03:00:09;;;;;;;0.80;0.80;;;24.70;47.40;;;;;;4876028;29;20084;-60
2022/05/22 03:02:36;;;;;;;0.40;0.40;;;24.70;47.40;;;;;;4875469;29;20076;-60
2022/05/22 03:05:04;;;;;;;0.73;0.73;;;24.70;47.40;;;;;;4875639;29;20055;-60
2022/05/22 03:07:34;;;;;;;0.47;0.47;;;24.70;47.40;;;;;;4875161;29;20525;-60
2022/05/22 03:10:02;;;;;;;0.40;0.40;;;24.70;47.40;;;;;;4875409;29;20410;-60
2022/05/22 03:12:30;;;;;;;0.50;0.50;;;24.70;47.40;;;;;;4875699;29;20049;-60
2022/05/22 03:14:58;;;;;;;0.50;0.50;;;24.70;47.90;;;;;;4874925;29;20053;-60
2022/05/22 03:17:26;;;;;;;0.55;0.55;;;24.70;47.40;;;;;;4874304;29;20085;-60
2022/05/22 03:19:53;;;;;;;0.35;0.35;;;24.70;47.40;;;;;;4875096;29;20554;-60
2022/05/22 03:22:21;;;;;;;1.08;0.50;;;24.70;47.40;;;;;;4875156;29;20053;-60
2022/05/22 03:24:49;;;;;;;0.40;0.40;;;24.70;47.30;;;;;;4875416;29;20049;-60
2022/05/22 03:27:18;;;;;;;0.60;0.60;;;24.70;47.30;;;;;;4870568;29;20045;-60
2022/05/22 03:29:48;;;;;;;0.57;0.57;;;24.80;47.30;;;;;;4874121;29;20137;-60
2022/05/22 03:32:16;;;;;;;0.60;0.60;;;24.70;47.30;;;;;;4875151;29;20101;-60
2022/05/22 03:34:43;;;;;;;0.70;0.50;;;24.70;47.30;;;;;;4874947;29;20088;-60
2022/05/22 03:37:11;;;;;;;0.60;0.60;;;24.70;47.30;;;;;;4875001;29;20049;-60
2022/05/22 03:39:38;;;;;;;0.60;0.60;;;24.80;47.30;;;;;;4873936;29;20342;-60
2022/05/22 03:42:06;;;;;;;0.60;0.60;;;24.80;47.20;;;;;;4873844;29;20089;-60
2022/05/22 03:44:36;;;;;;;0.70;0.70;;;24.80;47.20;;;;;;4874820;29;20056;-60
2022/05/22 03:47:04;;;;;;;0.50;0.50;;;24.90;47.20;;;;;;4875008;29;20057;-60
2022/05/22 03:49:31;;;;;;;0.55;0.55;;;24.90;47.20;;;;;;4875498;29;20705;-60
2022/05/22 03:51:58;;;;;;;0.50;0.50;;;24.90;47.10;;;;;;4878681;29;20082;-60
2022/05/22 03:54:25;;;;;;;0.52;0.52;;;24.90;47.10;;;;;;4879069;29;20137;-60
2022/05/22 03:56:54;;;;;;;0.70;0.70;;;24.90;47.00;;;;;;4878738;29;20124;-60
2022/05/22 03:59:21;;;;;;;0.43;0.40;;;24.90;46.90;;;;;;4875951;29;20418;-60
2022/05/22 04:01:48;;;;;;;0.55;0.55;;;24.90;46.90;;;;;;4878407;29;20386;-60
2022/05/22 04:04:16;;;;;;;0.43;0.40;;;24.90;46.80;;;;;;4878313;29;20049;-60
2022/05/22 04:06:43;;;;;;;0.55;0.40;;;25.00;46.80;;;;;;4878541;29;20052;-60
2022/05/22 04:09:10;;;;;;;0.60;0.60;;;25.00;46.80;;;;;;4878821;29;20041;-60
2022/05/22 04:11:41;;;;;;;0.40;0.40;;;25.00;46.70;;;;;;4878545;29;20114;-60
2022/05/22 04:14:08;;;;;;;0.50;0.35;;;25.00;46.70;;;;;;4878139;29;20048;-60
2022/05/22 04:16:35;;;;;;;1.05;0.50;;;25.00;46.60;;;;;;4878388;29;20052;-60
2022/05/22 04:19:03;;;;;;;0.40;0.40;;;25.10;46.70;;;;;;4878707;29;20413;-60
2022/05/22 04:21:30;;;;;;;0.50;0.50;;;25.10;46.60;;;;;;4878348;29;20060;-60
2022/05/22 04:26:44;;;;;;;0.40;0.40;;;25.10;46.40;;;;;;4877660;29;20053;-60
2022/05/22 04:29:12;;;;;;;1.17;0.82;;;25.20;46.40;;;;;;4874167;29;20086;-60
2022/05/22 04:31:39;;;;;;;0.60;0.60;;;25.20;46.30;;;;;;4878352;29;20510;-60
2022/05/22 04:34:06;;;;;;;0.52;0.52;;;25.30;46.30;;;;;;4878249;29;20171;-60
2022/05/22 04:36:34;;;;;;;0.50;0.50;;;25.30;46.20;;;;;;4878307;29;20104;-60
2022/05/22 04:39:01;;;;;;;0.52;0.52;;;25.30;46.10;;;;;;4876359;29;20053;-60
2022/05/22 04:41:28;;;;;;;0.70;0.70;;;25.30;46.10;;;;;;4878412;29;20045;-60
2022/05/22 04:43:56;;;;;;;0.65;0.65;;;25.30;46.00;;;;;;4877972;29;20117;-60
2022/05/22 04:46:23;;;;;;;0.50;0.50;;;25.40;46.00;;;;;;4877981;29;20045;-60
2022/05/22 04:48:51;;;;;;;0.55;0.55;;;25.40;46.00;;;;;;4878055;29;20366;-60
2022/05/22 04:51:18;;;;;;;0.55;0.55;;;25.40;45.90;;;;;;4877619;29;20095;-60
2022/05/22 04:53:46;;;;;;;0.68;0.65;;;25.40;45.80;;;;;;4877596;29;20084;-60
2022/05/22 04:56:13;;;;;;;0.80;0.80;;;25.50;45.80;;;;;;4878180;29;20088;-59
2022/05/22 04:58:40;;;;;;;0.70;0.70;;;25.50;45.70;;;;;;4876578;29;20113;-60
2022/05/22 05:01:09;;;;;;;0.65;0.65;;;25.50;45.70;;;;;;4872961;29;20045;-60
2022/05/22 05:03:37;;;;;;;0.47;0.47;;;25.50;45.60;;;;;;4877769;29;20555;-60
2022/05/22 05:06:04;;;;;;;0.55;0.55;;;25.50;45.60;;;;;;4877301;29;20136;-60
2022/05/22 05:08:32;;;;;;;0.70;0.70;;;25.50;45.60;;;;;;4877410;29;20463;-60
2022/05/22 05:11:00;;;;;;;0.88;0.75;;;25.50;45.70;;;;;;4876798;29;20113;-60
2022/05/22 05:13:28;;;;;;;0.60;0.60;;;25.40;45.80;;;;;;4876304;29;20057;-60
2022/05/22 05:16:03;;;;;;;0.52;0.52;;;25.40;46.00;;;;;;4876131;29;20116;-60
2022/05/22 05:18:30;;;;;;;0.60;0.55;;;25.30;46.10;;;;;;4877150;29;20053;-60
2022/05/22 05:21:03;;;;;;;0.60;0.60;;;25.20;46.50;;;;;;4877540;29;20141;-60
2022/05/22 05:23:31;;;;;;;0.40;0.40;;;25.00;46.80;;;;;;4875711;29;20053;-60
2022/05/22 05:25:58;;;;;;;0.40;0.40;;;24.80;47.20;;;;;;4877101;29;20053;-60
2022/05/22 05:28:26;;;;;;;0.60;0.60;;;24.60;47.30;;;;;;4877369;29;20128;-60
2022/05/22 05:30:54;;;;;;;0.52;0.52;;;24.40;47.20;;;;;;4875577;29;20109;-60
2022/05/22 05:33:22;;;;;;;0.40;0.40;;;24.10;47.00;;;;;;4872753;29;20064;-60
2022/05/22 05:35:49;;;;;;;0.57;0.57;;;23.90;46.70;;;;;;4876894;29;20082;-60
2022/05/22 05:38:16;;;;;;;0.70;0.70;;;23.60;46.50;;;;;;4876713;29;20084;-60
2022/05/22 05:40:44;;;;;;;0.70;0.70;;;23.40;46.50;;;;;;4877010;29;20053;-60
2022/05/22 05:43:11;;;;;;;0.70;0.50;;;23.20;46.40;;;;;;4876763;29;20052;-60
2022/05/22 05:45:38;;;;;;;0.63;0.63;;;22.90;46.50;;;;;;4876852;29;20052;-60
2022/05/22 05:48:06;;;;;;;0.60;0.60;;;22.70;47.10;;;;;;4876655;29;20295;-60
2022/05/22 05:50:33;;;;;;;0.45;0.45;;;22.60;47.80;;;;;;4875766;29;20056;-60
2022/05/22 05:53:01;;;;;;;0.88;0.88;;;22.50;47.80;;;;;;4876584;29;20405;-60
2022/05/22 05:55:29;;;;;;;0.40;0.40;;;22.40;47.30;;;;;;4877096;29;20109;-60
2022/05/22 05:58:16;;;;;;;0.43;0.43;;;22.30;47.70;;;;;;4876824;29;20049;-60
2022/05/22 06:01:03;;;;;;;0.40;0.40;;;22.20;47.50;;;;;;4876479;29;20048;-60
2022/05/22 06:03:31;;;;;;;0.60;0.60;;;22.10;47.50;;;;;;4874752;29;20117;-63
2022/05/22 06:05:59;;;;;;;0.82;0.82;;;22.00;48.50;;;;;;4873979;29;20057;-60
2022/05/22 06:08:26;;;;;;;0.60;0.60;;;21.90;47.90;;;;;;4876645;29;20109;-60
2022/05/22 06:10:53;;;;;;;0.45;0.45;;;21.80;47.60;;;;;;4876427;29;20095;-61
2022/05/22 06:13:20;;;;;;;0.50;0.50;;;21.80;48.00;;;;;;4875706;29;20053;-59
2022/05/22 06:15:47;;;;;;;0.43;0.43;;;21.70;48.40;;;;;;4876637;29;20698;-61
2022/05/22 06:18:14;;;;;;;0.60;0.60;;;21.70;48.20;;;;;;4876452;29;20089;-60
2022/05/22 06:20:41;;;;;;;0.57;0.52;;;21.60;48.20;;;;;;4875428;29;20045;-60
2022/05/22 06:23:09;;;;;;;0.40;0.40;;;21.60;48.80;;;;;;4874476;29;20406;-60
2022/05/22 06:25:36;;;;;;;0.75;0.75;;;21.50;48.30;;;;;;4875869;29;20045;-60
2022/05/22 06:28:03;;;;;;;0.57;0.50;;;21.50;48.30;;;;;;4876345;29;20307;-60
2022/05/22 06:30:30;;;;;;;0.57;0.57;;;21.50;48.60;;;;;;4875913;29;20073;-60
2022/05/22 06:33:00;;;;;;;0.45;0.45;;;21.40;48.40;;;;;;4876390;29;20116;-60
2022/05/22 06:35:27;;;;;;;0.52;0.52;;;21.40;48.30;;;;;;4871178;29;20474;-60
2022/05/22 06:37:54;;;;;;;0.65;0.60;;;21.40;48.30;;;;;;4874703;29;20459;-59
2022/05/22 06:40:21;;;;;;;0.90;0.77;;;21.30;48.40;;;;;;4875766;29;20049;-60
2022/05/22 06:42:48;;;;;;;0.50;0.50;;;21.30;48.40;;;;;;4876221;29;20092;-60
2022/05/22 06:45:22;;;;;;;0.50;0.50;;;21.30;48.50;;;;;;4875658;29;20049;-60
2022/05/22 06:47:49;;;;;;;0.43;0.43;;;21.30;48.70;;;;;;4875437;29;20057;-59
2022/05/22 06:50:20;;;;;;;0.47;0.47;;;21.30;48.70;;;;;;4874265;29;20113;-59
2022/05/22 06:52:47;;;;;;;0.70;0.70;;;21.30;48.80;;;;;;4876051;29;20053;-59
2022/05/22 06:55:15;;;;;;;0.40;0.40;;;21.30;48.60;;;;;;4874106;29;20076;-60
2022/05/22 06:57:43;;;;;;;0.40;0.40;;;21.30;49.10;;;;;;4875788;29;20089;-60
2022/05/22 07:00:14;;;;;;;0.88;0.40;;;21.20;48.10;;;;;;4875257;29;20045;-60
2022/05/22 07:02:42;;;;;;;0.40;0.40;;;21.20;48.20;;;;;;4876080;29;20065;-60
2022/05/22 07:05:12;;;;;;;0.50;0.50;;;21.20;48.50;;;;;;4875249;29;20113;-60
2022/05/22 07:07:39;;;;;;;0.30;0.30;;;21.20;48.10;;;;;;4871283;29;20480;-60
2022/05/22 07:10:07;;;;;;;0.55;0.55;;;21.20;48.40;;;;;;4875584;29;20052;-60
2022/05/22 07:12:34;;;;;;;0.35;0.35;;;21.20;48.80;;;;;;4874895;29;20095;-59
2022/05/22 07:15:03;;;;;;;0.60;0.60;;;21.20;48.30;;;;;;4875056;29;20100;-60
2022/05/22 07:17:30;;;;;;;0.68;0.68;;;21.20;48.40;;;;;;4875414;29;20049;-60
2022/05/22 07:19:58;;;;;;;0.40;0.40;;;21.20;48.80;;;;;;4875254;29;20053;-60
2022/05/22 07:22:25;;;;;;;0.45;0.45;;;21.20;48.40;;;;;;4875648;29;20097;-59
2022/05/22 07:24:53;;;;;;;0.50;0.50;;;21.20;48.20;;;;;;4875142;29;20100;-60
2022/05/22 07:27:20;;;;;;;0.40;0.40;;;21.20;48.30;;;;;;4875683;29;20053;-60
2022/05/22 07:29:48;;;;;;;0.40;0.40;;;21.20;48.30;;;;;;4874570;29;20045;-60
2022/05/22 07:32:15;;;;;;;0.50;0.50;;;21.20;47.90;;;;;;4875543;29;20045;-60
2022/05/22 07:34:42;;;;;;;0.50;0.50;;;21.20;47.60;;;;;;4875052;29;20581;-60
2022/05/22 07:37:11;;;;;;;0.40;0.40;;;21.20;48.00;;;;;;4874547;29;20088;-60
2022/05/22 07:39:38;;;;;;;0.40;0.40;;;21.20;48.00;;;;;;4871024;29;20077;-60
2022/05/22 07:42:06;;;;;;;0.70;0.70;;;21.20;47.90;;;;;;4874883;29;20082;-60
2022/05/22 07:44:34;;;;;;;0.40;0.40;;;21.20;48.00;;;;;;4874786;29;20092;-59
2022/05/22 07:47:01;;;;;;;0.40;0.40;;;21.20;48.40;;;;;;4875534;29;20053;-59
2022/05/22 07:52:15;;;;;;;0.50;0.50;;;21.20;48.00;;;;;;4875171;29;20056;-60
2022/05/22 07:54:48;;;;;;;0.70;0.70;;;21.20;48.50;;;;;;4874939;29;20057;-60
2022/05/22 07:57:15;;;;;;;0.50;0.50;;;21.20;48.40;;;;;;4874917;29;20092;-60
2022/05/22 07:59:42;;;;;;;0.43;0.43;;;21.20;48.00;;;;;;4874861;29;20104;-60
2022/05/22 08:02:12;;;;;;;0.55;0.55;;;21.20;48.30;;;;;;4874980;29;20415;-60
2022/05/22 08:04:41;;;;;;;0.40;0.40;;;21.20;48.20;;;;;;4875079;29;20064;-60
2022/05/22 08:07:08;;;;;;;0.73;0.73;;;21.20;48.00;;;;;;4874403;29;20540;-60
2022/05/22 08:09:36;;;;;;;0.60;0.55;;;21.10;48.10;;;;;;4875167;29;20045;-60
2022/05/22 08:12:04;;;;;;;0.50;0.50;;;21.10;48.50;;;;;;4870465;29;20112;-60
2022/05/22 08:14:32;;;;;;;0.50;0.50;;;21.10;48.30;;;;;;4874803;29;20199;-60
2022/05/22 08:17:02;;;;;;;0.40;0.40;;;21.10;48.40;;;;;;4873669;29;20045;-60
2022/05/22 08:19:30;;;;;;;0.60;0.60;;;21.00;48.30;;;;;;4874650;29;20403;-60
2022/05/22 08:21:57;;;;;;;0.70;0.40;;;21.10;48.30;;;;;;4874872;29;20053;-59
2022/05/22 08:24:25;;;;;;;0.30;0.30;;;21.10;48.20;;;;;;4873566;29;20053;-60
2022/05/22 08:26:52;;;;;;;1.58;0.43;;;21.10;48.30;;;;;;4874120;29;20053;-60
2022/05/22 08:29:19;;;;;;;0.50;0.50;;;21.00;48.20;;;;;;4874837;29;20116;-60
2022/05/22 08:31:46;;;;;;;0.45;0.45;;;21.00;47.90;;;;;;4874302;29;20332;-60
2022/05/22 08:34:14;;;;;;;0.28;0.28;;;21.00;48.20;;;;;;4874785;29;20248;-60
2022/05/22 08:36:42;;;;;;;0.60;0.60;;;21.00;48.30;;;;;;4875836;29;20197;-60
2022/05/22 08:39:09;;;;;;;0.50;0.50;;;21.00;48.00;;;;;;4878152;29;20522;-60
2022/05/22 08:41:42;;;;;;;0.60;0.60;;;21.00;48.50;;;;;;4878382;29;20109;-60
2022/05/22 08:44:13;;;;;;;0.40;0.40;;;21.00;48.30;;;;;;4873658;29;20377;-60
2022/05/22 08:47:06;;;;;;;0.70;0.70;;;21.00;48.20;;;;;;4861858;29;20121;-59
2022/05/22 08:49:47;;;;;;;0.55;0.55;;;21.10;48.00;;;;;;4876748;29;20100;-60
2022/05/22 08:52:39;;;;;;;0.40;0.40;;;21.10;48.10;;;;;;4878162;29;20413;-60
2022/05/22 08:55:15;;;;;;;0.30;0.30;;;21.10;47.80;;;;;;4877716;29;20455;-60
2022/05/22 09:00:55;;;;;;;0.40;0.40;;;21.00;48.30;;;;;;4877867;29;20256;-62
2022/05/22 09:03:29;;;;;;;0.40;0.40;;;21.00;48.20;;;;;;4877892;29;20049;-62
2022/05/22 09:06:01;;;;;;;0.47;0.47;;;21.00;48.00;;;;;;4876848;29;20518;-63
2022/05/22 09:08:46;;;;;;;0.60;0.60;;;21.00;48.30;;;;;;4877531;29;20080;-62
2022/05/22 09:11:45;;;;;;;0.60;0.60;;;21.00;48.30;;;;;;4877430;29;20084;-62
2022/05/22 09:14:26;;;;;;;0.45;0.45;;;20.90;48.50;;;;;;4876213;29;20057;-60
2022/05/22 09:17:04;;;;;;;0.47;0.47;;;20.90;48.60;;;;;;4874683;29;20369;-60
2022/05/22 09:19:42;;;;;;;0.40;0.40;;;21.00;48.70;;;;;;4876937;29;20048;-60
2022/05/22 09:22:50;;;;;;;0.52;0.52;;;20.90;48.70;;;;;;4877193;29;20278;-59
2022/05/22 09:25:41;;;;;;;0.60;0.60;;;20.90;48.30;;;;;;4876233;29;20045;-60
2022/05/22 09:28:42;;;;;;;0.68;0.68;;;21.00;48.30;;;;;;4875839;29;20125;-62
2022/05/22 09:31:28;;;;;;;0.73;0.73;;;20.90;48.40;;;;;;4875751;29;20502;-62
2022/05/22 09:34:26;;;;;;;0.50;0.50;;;20.90;48.30;;;;;;4877213;29;20088;-62
2022/05/22 09:37:28;;;;;;;0.60;0.60;;;20.90;48.20;;;;;;4875612;29;20053;-62
2022/05/22 09:40:22;;;;;;;0.40;0.40;;;20.90;48.30;;;;;;4876273;29;20053;-62
2022/05/22 09:43:11;;;;;;;0.57;0.47;;;21.00;47.90;;;;;;4877144;29;20137;-62
2022/05/22 09:46:18;;;;;;;0.40;0.40;;;20.90;48.10;;;;;;4875792;29;20570;-62
2022/05/22 09:49:12;;;;;;;0.40;0.40;;;20.90;48.30;;;;;;4875804;29;20546;-61
2022/05/22 09:52:10;;;;;;;0.50;0.50;;;20.90;47.90;;;;;;4876861;29;20128;-62
2022/05/22 09:55:04;;;;;;;0.40;0.40;;;21.00;47.80;;;;;;4876816;29;20108;-62
2022/05/22 09:57:54;;;;;;;0.40;0.40;;;21.00;47.60;;;;;;4876301;29;20068;-62
2022/05/22 10:00:25;;;;;;;;;;;21.00;47.50;;;;;;4877209;29;20045;-62
2022/05/22 10:03:13;;;;;;;0.30;0.30;;;21.00;47.50;;;;;;4876377;29;20214;-62
2022/05/22 10:06:09;;;;;;;0.30;0.30;;;21.00;47.50;;;;;;4876493;29;20323;-62
2022/05/22 10:09:01;;;;;;;0.35;0.35;;;21.00;47.30;;;;;;4876229;29;20683;-61
2022/05/22 10:12:07;;;;;;;0.57;0.57;;;21.00;48.00;;;;;;4876718;29;20544;-62
2022/05/22 10:15:31;;;;;;;0.63;0.50;;;21.00;48.30;;;;;;4875964;29;20086;-62
2022/05/22 10:18:19;;;;;;;0.40;0.40;;;21.10;48.00;;;;;;4870513;29;20467;-62
2022/05/22 10:21:06;;;;;;;0.40;0.40;;;21.20;47.90;;;;;;4875905;29;20403;-62
2022/05/22 10:24:02;;;;;;;0.43;0.43;;;21.10;47.80;;;;;;4875070;29;20088;-61
2022/05/22 10:27:00;;;;;;;0.40;0.40;;;21.20;47.60;;;;;;4874501;29;20101;-61
2022/05/22 10:29:44;;;;;;;0.50;0.50;;;21.20;47.50;;;;;;4875807;29;20502;-61
2022/05/22 10:32:19;;;;;;;0.40;0.40;;;21.20;47.40;;;;;;4876116;29;20057;-61
2022/05/22 10:35:09;;;;;;;2.00;0.60;;;21.20;47.60;;;;;;4875495;29;20116;-62
2022/05/22 10:37:55;;;;;;;0.38;0.38;;;21.10;48.20;;;;;;4875411;29;20109;-61
2022/05/22 10:40:24;;;;;;;0.43;0.43;;;21.10;47.80;;;;;;4875777;29;20136;-62
2022/05/22 10:42:56;;;;;;;0.60;0.60;;;21.10;47.70;;;;;;4876089;29;20247;-61
2022/05/22 10:45:32;;;;;;;0.50;0.50;;;21.10;47.60;;;;;;4875580;29;20041;-62
2022/05/22 10:48:17;;;;;;;0.50;0.50;;;21.00;47.90;;;;;;4874405;29;20633;-62
2022/05/22 10:51:07;;;;;;;0.40;0.40;;;21.00;47.70;;;;;;4871275;29;20045;-62
2022/05/22 10:53:52;;;;;;;0.50;0.50;;;21.00;47.60;;;;;;4890188;29;20077;-61
2022/05/22 10:56:25;;;;;;;0.50;0.50;;;21.00;47.80;;;;;;4892031;29;20103;-62
2022/05/22 10:59:07;;;;;;;0.47;0.47;;;21.00;47.90;;;;;;4892408;29;20060;-62
2022/05/22 11:01:38;;;;;;;0.40;0.40;;;21.00;47.60;;;;;;4891779;29;20100;-61
2022/05/22 11:04:07;;;;;;;;;;;21.00;48.20;;;;;;4894628;29;20060;-61
2022/05/22 11:06:37;;;;;;;0.82;0.80;;;21.00;48.10;;;;;;4894091;29;19958;-60
2022/05/22 11:09:07;;;;;;;0.50;0.40;;;21.00;47.80;;;;;;4892729;29;20451;-61
2022/05/22 11:11:39;;;;;;;0.52;0.52;;;21.00;47.80;;;;;;4892574;29;20060;-60
2022/05/22 11:14:16;;;;;;;0.57;0.55;;;21.00;47.80;;;;;;4887562;29;20114;-60
2022/05/22 11:16:44;;;;;;;0.50;0.50;;;21.00;47.70;;;;;;4880595;29;20526;-61
2022/05/22 11:19:24;;;;;;;0.50;0.50;;;21.00;47.60;;;;;;4890285;29;20235;-60
2022/05/22 11:22:20;;;;;;;1.83;0.40;;;20.90;47.50;;;;;;4871093;29;20049;-60
2022/05/22 11:25:00;;;;;;;0.38;0.38;;;20.90;47.40;;;;;;4875159;29;20478;-60
2022/05/22 11:27:54;;;;;;;0.70;0.70;;;21.00;47.60;;;;;;4874775;29;20257;-61
2022/05/22 11:30:47;;;;;;;0.50;0.50;;;21.00;47.50;;;;;;4875000;29;20056;-61
2022/05/22 11:33:49;;;;;;;0.45;0.45;;;21.10;47.60;;;;;;4888363;29;20115;-61
2022/05/22 11:36:45;;;;;;;0.68;0.68;;;21.10;47.40;;;;;;4893206;29;20052;-60
2022/05/22 11:39:42;;;;;;;0.50;0.50;;;21.20;47.00;;;;;;4893321;29;20676;-61
2022/05/22 11:42:26;;;;;;;2.63;0.47;;;21.20;47.00;;;;;;4893628;29;20123;-60
2022/05/22 11:45:33;;;;;;;0.50;0.50;;;21.20;47.20;;;;;;4893666;29;20056;-61
2022/05/22 11:48:24;;;;;;;0.32;0.32;;;21.20;47.20;;;;;;4893857;29;20056;-61
2022/05/22 11:51:26;;;;;;;0.50;0.50;;;21.20;47.30;;;;;;4893379;29;20171;-60
2022/05/22 11:54:26;;;;;;;0.70;0.70;;;21.20;47.60;;;;;;4889228;29;20073;-61
2022/05/22 11:57:26;;;;;;;1.08;0.98;;;21.20;48.30;;;;;;4892845;29;20738;-60
2022/05/22 12:00:23;;;;;;;0.63;0.63;;;21.20;48.00;;;;;;4893167;29;20053;-61
2022/05/22 12:03:30;;;;;;;0.70;0.60;;;21.20;47.70;;;;;;4893683;29;20463;-61
2022/05/22 12:06:13;;;;;;;0.50;0.50;;;21.20;47.90;;;;;;4892883;29;20045;-61
2022/05/22 12:09:10;;;;;;;0.70;0.70;;;21.20;47.80;;;;;;4893425;29;20505;-60
2022/05/22 12:12:01;;;;;;;0.60;0.60;;;21.20;47.70;;;;;;4895741;29;20044;-60
2022/05/22 12:14:56;;;;;;;0.43;0.43;;;21.20;47.70;;;;;;4895898;29;20104;-61
2022/05/22 12:17:49;;;;;;;0.60;0.60;;;21.20;47.50;;;;;;4895797;29;20045;-61
2022/05/22 12:20:29;;;;;;;0.68;0.68;;;21.20;47.80;;;;;;4897130;29;20377;-61
2022/05/22 12:23:21;;;;;;;0.80;0.80;;;21.20;47.80;;;;;;4896799;29;20108;-61
2022/05/22 12:26:01;;;;;;;0.63;0.63;;;21.20;48.10;;;;;;4892693;29;20099;-61
2022/05/22 12:28:42;;;;;;;0.63;0.63;;;21.20;47.90;;;;;;4897277;29;20306;-61
2022/05/22 12:31:32;;;;;;;0.65;0.65;;;21.20;48.30;;;;;;4896689;29;20053;-60
2022/05/22 12:34:06;;;;;;;0.40;0.40;;;21.20;47.60;;;;;;4897004;29;20494;-60
2022/05/22 12:36:34;;;;;;;0.40;0.40;;;21.20;47.90;;;;;;4896677;29;20083;-60
2022/05/22 12:39:06;;;;;;;0.50;0.50;;;21.30;48.00;;;;;;4896770;29;20639;-60
2022/05/22 12:41:57;;;;;;;0.55;0.55;;;21.30;48.00;;;;;;4895322;29;20045;-60
2022/05/22 12:44:25;;;;;;;0.63;0.57;;;21.30;47.80;;;;;;4897006;29;20048;-60
2022/05/22 12:46:53;;;;;;;0.38;0.38;;;21.30;48.00;;;;;;4896425;29;20053;-60
2022/05/22 12:49:30;;;;;;;0.75;0.75;;;21.30;47.90;;;;;;4896862;29;20144;-60
2022/05/22 12:52:21;;;;;;;0.98;0.88;;;21.30;48.00;;;;;;4895324;29;20108;-60
2022/05/22 12:55:02;;;;;;;0.55;0.55;;;21.30;48.20;;;;;;4896506;29;20384;-60
2022/05/22 12:57:30;;;;;;;0.38;0.38;;;21.30;48.40;;;;;;4893992;29;20044;-60
2022/05/22 13:00:00;;;;;;;0.50;0.50;;;21.30;48.30;;;;;;4895229;29;20481;-61
2022/05/22 13:02:37;;;;;;;0.47;0.47;;;21.30;48.50;;;;;;4896508;29;20693;-60
2022/05/22 13:05:30;;;;;;;0.82;0.60;;;21.30;48.20;;;;;;4896063;29;20120;-60
2022/05/22 13:07:57;;;;;;;0.50;0.50;;;21.40;48.20;;;;;;4896261;29;20318;-60
2022/05/22 13:10:45;;;;;;;0.70;0.70;;;21.40;48.40;;;;;;4896227;29;20048;-60
2022/05/22 13:13:24;;;;;;;0.60;0.60;;;21.40;48.50;;;;;;4894677;29;20589;-60
2022/05/22 13:16:08;;;;;;;0.88;0.88;;;21.50;48.20;;;;;;4896081;29;20053;-60
2022/05/22 13:18:49;;;;;;;0.90;0.70;;;21.50;48.20;;;;;;4896170;29;20056;-60
2022/05/22 13:21:37;;;;;;;0.68;0.60;;;21.50;48.00;;;;;;4895670;29;20056;-60
2022/05/22 13:24:23;;;;;;;0.65;0.65;;;21.50;47.80;;;;;;4895108;29;20061;-60
2022/05/22 13:27:04;;;;;;;0.60;0.60;;;21.50;47.80;;;;;;4894033;29;20053;-60
2022/05/22 13:29:51;;;;;;;;;;;21.50;47.80;;;;;;4894574;29;20823;-61
2022/05/22 13:32:24;;;;;;;0.50;0.50;;;21.50;47.90;;;;;;4896121;29;19923;-60
2022/05/22 13:34:51;;;;;;;0.45;0.45;;;21.50;48.30;;;;;;4895933;29;20132;-61
2022/05/22 13:37:29;;;;;;;1.02;0.80;;;21.60;48.00;;;;;;4895331;29;20052;-60